sensor_id;sensor_type;location;lat;lon;timestamp;pressure;altitude;pressure_sealevel;temperature;humidity
56604;BME280;42486;47.478;19.036;2022-08-14T00:01:44;99618.66;;;20.16;64.47
56604;BME280;42486;47.478;19.036;2022-08-14T00:04:56;99613.66;;;19.99;64.97
56604;BME280;42486;47.478;19.036;2022-08-14T00:07:59;99622.00;;;19.96;65.33
56604;BME280;42486;47.478;19.036;2022-08-14T00:11:02;99615.88;;;19.96;65.54
56604;BME280;42486;47.478;19.036;2022-08-14T00:14:07;99621.75;;;19.91;65.72
56604;BME280;42486;47.478;19.036;2022-08-14T00:17:17;99619.09;;;19.91;65.70
56604;BME280;42486;47.478;19.036;2022-08-14T00:20:27;99613.41;;;19.94;65.63
56604;BME280;42486;47.478;19.036;2022-08-14T00:23:44;99614.75;;;19.84;66.01
56604;BME280;42486;47.478;19.036;2022-08-14T00:26:55;99608.38;;;19.78;66.53
56604;BME280;42486;47.478;19.036;2022-08-14T00:30:08;99609.78;;;19.74;66.76
56604;BME280;42486;47.478;19.036;2022-08-14T00:33:11;99610.97;;;19.71;67.40
56604;BME280;42486;47.478;19.036;2022-08-14T00:36:17;99609.97;;;19.72;66.92
56604;BME280;42486;47.478;19.036;2022-08-14T00:39:39;99605.69;;;19.71;67.17
56604;BME280;42486;47.478;19.036;2022-08-14T00:42:43;99606.69;;;19.70;67.32
56604;BME280;42486;47.478;19.036;2022-08-14T00:45:57;99604.66;;;19.72;67.46
56604;BME280;42486;47.478;19.036;2022-08-14T00:49:07;99601.09;;;19.65;67.87
56604;BME280;42486;47.478;19.036;2022-08-14T00:52:15;99603.31;;;19.62;67.99
56604;BME280;42486;47.478;19.036;2022-08-14T00:55:19;99600.41;;;19.56;68.35
56604;BME280;42486;47.478;19.036;2022-08-14T00:58:24;99600.38;;;19.50;68.67
56604;BME280;42486;47.478;19.036;2022-08-14T01:01:39;99597.87;;;19.48;68.78
56604;BME280;42486;47.478;19.036;2022-08-14T01:04:42;99600.16;;;19.51;68.82
56604;BME280;42486;47.478;19.036;2022-08-14T01:07:55;99595.25;;;19.48;68.96
56604;BME280;42486;47.478;19.036;2022-08-14T01:10:59;99596.66;;;19.44;69.27
56604;BME280;42486;47.478;19.036;2022-08-14T01:14:03;99600.28;;;19.43;69.28
56604;BME280;42486;47.478;19.036;2022-08-14T01:17:27;99596.06;;;19.49;69.10
56604;BME280;42486;47.478;19.036;2022-08-14T01:20:54;99592.91;;;19.39;69.51
56604;BME280;42486;47.478;19.036;2022-08-14T01:24:14;99596.94;;;19.34;69.88
56604;BME280;42486;47.478;19.036;2022-08-14T01:27:31;99603.88;;;19.35;70.16
56604;BME280;42486;47.478;19.036;2022-08-14T01:30:59;99603.81;;;19.29;70.81
56604;BME280;42486;47.478;19.036;2022-08-14T01:34:03;99598.13;;;19.32;70.39
56604;BME280;42486;47.478;19.036;2022-08-14T01:37:26;99601.59;;;19.32;70.37
56604;BME280;42486;47.478;19.036;2022-08-14T01:40:32;99603.56;;;19.24;70.98
56604;BME280;42486;47.478;19.036;2022-08-14T01:43:43;99610.22;;;19.20;71.02
56604;BME280;42486;47.478;19.036;2022-08-14T01:46:58;99605.19;;;19.25;70.70
56604;BME280;42486;47.478;19.036;2022-08-14T01:50:02;99614.16;;;19.24;71.22
56604;BME280;42486;47.478;19.036;2022-08-14T01:53:06;99618.25;;;19.26;70.87
56604;BME280;42486;47.478;19.036;2022-08-14T01:56:09;99617.25;;;19.27;70.12
56604;BME280;42486;47.478;19.036;2022-08-14T02:02:39;99605.44;;;19.30;70.31
56604;BME280;42486;47.478;19.036;2022-08-14T02:05:48;99608.84;;;19.24;70.38
56604;BME280;42486;47.478;19.036;2022-08-14T02:08:51;99611.56;;;19.30;70.07
56604;BME280;42486;47.478;19.036;2022-08-14T02:11:56;99611.50;;;19.24;70.70
56604;BME280;42486;47.478;19.036;2022-08-14T02:14:58;99610.22;;;19.20;70.90
56604;BME280;42486;47.478;19.036;2022-08-14T02:18:02;99605.81;;;19.27;70.88
56604;BME280;42486;47.478;19.036;2022-08-14T02:21:05;99609.63;;;19.18;71.30
56604;BME280;42486;47.478;19.036;2022-08-14T02:24:11;99613.91;;;19.19;71.60
56604;BME280;42486;47.478;19.036;2022-08-14T02:27:33;99606.19;;;19.02;71.91
56604;BME280;42486;47.478;19.036;2022-08-14T02:30:58;99602.34;;;19.05;72.14
56604;BME280;42486;47.478;19.036;2022-08-14T02:34:04;99612.03;;;18.98;72.34
56604;BME280;42486;47.478;19.036;2022-08-14T02:37:23;99610.78;;;18.94;72.44
56604;BME280;42486;47.478;19.036;2022-08-14T02:40:45;99611.97;;;18.91;73.01
56604;BME280;42486;47.478;19.036;2022-08-14T02:43:50;99610.03;;;18.85;72.81
56604;BME280;42486;47.478;19.036;2022-08-14T02:47:01;99606.56;;;18.84;72.52
56604;BME280;42486;47.478;19.036;2022-08-14T02:50:08;99613.31;;;18.87;72.48
56604;BME280;42486;47.478;19.036;2022-08-14T02:53:11;99609.50;;;18.75;73.21
56604;BME280;42486;47.478;19.036;2022-08-14T02:56:16;99620.63;;;18.70;73.61
56604;BME280;42486;47.478;19.036;2022-08-14T02:59:38;99615.97;;;18.57;74.49
56604;BME280;42486;47.478;19.036;2022-08-14T03:02:44;99623.16;;;18.63;74.45
56604;BME280;42486;47.478;19.036;2022-08-14T03:06:00;99614.31;;;18.56;74.85
56604;BME280;42486;47.478;19.036;2022-08-14T03:09:04;99609.66;;;18.58;74.99
56604;BME280;42486;47.478;19.036;2022-08-14T03:12:08;99621.06;;;18.59;74.53
56604;BME280;42486;47.478;19.036;2022-08-14T03:15:12;99616.94;;;18.56;74.75
56604;BME280;42486;47.478;19.036;2022-08-14T03:18:20;99618.16;;;18.54;74.75
56604;BME280;42486;47.478;19.036;2022-08-14T03:21:33;99629.56;;;18.54;75.15
56604;BME280;42486;47.478;19.036;2022-08-14T03:24:38;99616.59;;;18.44;75.22
56604;BME280;42486;47.478;19.036;2022-08-14T03:27:42;99624.62;;;18.36;76.20
56604;BME280;42486;47.478;19.036;2022-08-14T03:30:59;99623.97;;;18.34;76.27
56604;BME280;42486;47.478;19.036;2022-08-14T03:34:03;99626.53;;;18.27;76.42
56604;BME280;42486;47.478;19.036;2022-08-14T03:37:10;99629.72;;;18.23;76.93
56604;BME280;42486;47.478;19.036;2022-08-14T03:40:33;99631.81;;;18.27;77.39
56604;BME280;42486;47.478;19.036;2022-08-14T03:43:36;99623.31;;;18.32;77.55
56604;BME280;42486;47.478;19.036;2022-08-14T03:46:39;99630.00;;;18.28;77.15
56604;BME280;42486;47.478;19.036;2022-08-14T03:49:56;99628.09;;;18.22;77.62
56604;BME280;42486;47.478;19.036;2022-08-14T03:53:01;99618.13;;;18.24;77.53
56604;BME280;42486;47.478;19.036;2022-08-14T03:56:04;99624.31;;;18.16;78.41
56604;BME280;42486;47.478;19.036;2022-08-14T03:59:08;99617.09;;;18.10;78.14
56604;BME280;42486;47.478;19.036;2022-08-14T04:02:19;99622.06;;;18.28;78.04
56604;BME280;42486;47.478;19.036;2022-08-14T04:05:38;99626.72;;;18.26;78.06
56604;BME280;42486;47.478;19.036;2022-08-14T04:08:43;99630.38;;;18.25;77.67
56604;BME280;42486;47.478;19.036;2022-08-14T04:11:47;99628.25;;;18.20;77.76
56604;BME280;42486;47.478;19.036;2022-08-14T04:14:51;99635.00;;;18.23;77.50
56604;BME280;42486;47.478;19.036;2022-08-14T04:17:54;99625.06;;;18.25;77.74
56604;BME280;42486;47.478;19.036;2022-08-14T04:20:56;99639.03;;;18.34;77.79
56604;BME280;42486;47.478;19.036;2022-08-14T04:24:00;99630.09;;;18.49;77.18
56604;BME280;42486;47.478;19.036;2022-08-14T04:27:12;99635.84;;;18.53;77.14
56604;BME280;42486;47.478;19.036;2022-08-14T04:30:17;99631.09;;;18.63;76.58
56604;BME280;42486;47.478;19.036;2022-08-14T04:33:37;99635.94;;;18.60;77.12
56604;BME280;42486;47.478;19.036;2022-08-14T04:36:39;99639.94;;;18.56;78.24
56604;BME280;42486;47.478;19.036;2022-08-14T04:40:09;99644.13;;;18.50;78.04
56604;BME280;42486;47.478;19.036;2022-08-14T04:43:31;99637.03;;;18.65;77.85
56604;BME280;42486;47.478;19.036;2022-08-14T04:46:40;99642.16;;;18.82;77.82
56604;BME280;42486;47.478;19.036;2022-08-14T04:50:05;99646.44;;;18.98;76.99
56604;BME280;42486;47.478;19.036;2022-08-14T04:53:08;99645.88;;;19.02;76.55
56604;BME280;42486;47.478;19.036;2022-08-14T04:56:24;99652.13;;;19.31;75.31
56604;BME280;42486;47.478;19.036;2022-08-14T04:59:38;99649.78;;;19.57;73.49
56604;BME280;42486;47.478;19.036;2022-08-14T05:02:46;99650.16;;;19.76;72.80
56604;BME280;42486;47.478;19.036;2022-08-14T05:05:49;99647.31;;;19.99;71.70
56604;BME280;42486;47.478;19.036;2022-08-14T05:09:00;99647.84;;;20.16;71.63
56604;BME280;42486;47.478;19.036;2022-08-14T05:12:02;99654.47;;;20.27;71.27
56604;BME280;42486;47.478;19.036;2022-08-14T05:15:26;99655.53;;;20.32;70.77
56604;BME280;42486;47.478;19.036;2022-08-14T05:18:43;99658.50;;;20.51;70.07
56604;BME280;42486;47.478;19.036;2022-08-14T05:22:07;99651.25;;;20.59;69.52
56604;BME280;42486;47.478;19.036;2022-08-14T05:25:18;99645.53;;;20.62;69.48
56604;BME280;42486;47.478;19.036;2022-08-14T05:28:22;99654.62;;;20.81;68.77
56604;BME280;42486;47.478;19.036;2022-08-14T05:31:27;99651.09;;;21.16;67.11
56604;BME280;42486;47.478;19.036;2022-08-14T05:34:40;99648.63;;;21.14;67.80
56604;BME280;42486;47.478;19.036;2022-08-14T05:37:52;99656.22;;;21.24;67.12
56604;BME280;42486;47.478;19.036;2022-08-14T05:40:55;99654.44;;;21.38;66.59
56604;BME280;42486;47.478;19.036;2022-08-14T05:44:00;99653.66;;;21.50;66.40
56604;BME280;42486;47.478;19.036;2022-08-14T05:47:05;99659.41;;;21.61;65.79
56604;BME280;42486;47.478;19.036;2022-08-14T05:50:13;99658.59;;;21.60;65.54
56604;BME280;42486;47.478;19.036;2022-08-14T05:53:25;99664.94;;;21.66;64.37
56604;BME280;42486;47.478;19.036;2022-08-14T05:56:34;99666.56;;;21.67;64.06
56604;BME280;42486;47.478;19.036;2022-08-14T05:59:38;99662.28;;;21.86;63.77
56604;BME280;42486;47.478;19.036;2022-08-14T06:02:53;99663.31;;;21.91;63.73
56604;BME280;42486;47.478;19.036;2022-08-14T06:05:58;99667.44;;;22.14;62.55
56604;BME280;42486;47.478;19.036;2022-08-14T06:09:04;99658.81;;;22.52;60.72
56604;BME280;42486;47.478;19.036;2022-08-14T06:12:44;99650.37;;;23.26;57.11
56604;BME280;42486;47.478;19.036;2022-08-14T06:15:58;99650.37;;;23.26;57.11
56604;BME280;42486;47.478;19.036;2022-08-14T06:19:01;99648.28;;;22.83;57.95
56604;BME280;42486;47.478;19.036;2022-08-14T06:22:18;99648.16;;;23.23;56.81
56604;BME280;42486;47.478;19.036;2022-08-14T06:25:22;99650.84;;;24.12;54.09
56604;BME280;42486;47.478;19.036;2022-08-14T06:28:26;99647.47;;;24.23;54.09
56604;BME280;42486;47.478;19.036;2022-08-14T06:31:29;99640.19;;;23.87;55.15
56604;BME280;42486;47.478;19.036;2022-08-14T06:34:36;99649.69;;;23.44;56.29
56604;BME280;42486;47.478;19.036;2022-08-14T06:38:00;99647.75;;;23.58;56.95
56604;BME280;42486;47.478;19.036;2022-08-14T06:41:06;99651.41;;;23.25;58.12
56604;BME280;42486;47.478;19.036;2022-08-14T06:44:13;99647.12;;;23.56;57.79
56604;BME280;42486;47.478;19.036;2022-08-14T06:47:16;99647.22;;;23.43;57.36
56604;BME280;42486;47.478;19.036;2022-08-14T06:50:26;99650.06;;;23.48;57.76
56604;BME280;42486;47.478;19.036;2022-08-14T06:53:32;99636.59;;;23.68;57.30
56604;BME280;42486;47.478;19.036;2022-08-14T06:56:38;99638.47;;;23.67;57.58
56604;BME280;42486;47.478;19.036;2022-08-14T06:59:45;99632.78;;;23.89;57.50
56604;BME280;42486;47.478;19.036;2022-08-14T07:02:47;99633.41;;;24.09;56.54
56604;BME280;42486;47.478;19.036;2022-08-14T07:06:13;99626.94;;;24.24;55.24
56604;BME280;42486;47.478;19.036;2022-08-14T07:09:35;99627.94;;;24.23;55.56
56604;BME280;42486;47.478;19.036;2022-08-14T07:12:52;99630.81;;;24.03;56.00
56604;BME280;42486;47.478;19.036;2022-08-14T07:16:04;99631.25;;;24.43;55.71
56604;BME280;42486;47.478;19.036;2022-08-14T07:19:08;99632.00;;;25.24;53.94
56604;BME280;42486;47.478;19.036;2022-08-14T07:22:14;99634.69;;;27.53;46.43
56604;BME280;42486;47.478;19.036;2022-08-14T07:25:23;99633.25;;;29.12;42.29
56604;BME280;42486;47.478;19.036;2022-08-14T07:28:34;99643.63;;;32.25;36.21
56604;BME280;42486;47.478;19.036;2022-08-14T07:31:44;99639.53;;;33.58;32.96
56604;BME280;42486;47.478;19.036;2022-08-14T07:34:47;99651.72;;;35.15;30.30
56604;BME280;42486;47.478;19.036;2022-08-14T07:37:51;99639.31;;;33.49;33.07
56604;BME280;42486;47.478;19.036;2022-08-14T07:40:56;99647.56;;;34.79;30.29
56604;BME280;42486;47.478;19.036;2022-08-14T07:44:01;99650.91;;;35.85;28.89
56604;BME280;42486;47.478;19.036;2022-08-14T07:47:25;99650.69;;;36.14;28.60
56604;BME280;42486;47.478;19.036;2022-08-14T07:50:29;99649.72;;;36.37;27.97
56604;BME280;42486;47.478;19.036;2022-08-14T07:53:35;99655.66;;;36.95;27.01
56604;BME280;42486;47.478;19.036;2022-08-14T07:56:41;99647.59;;;36.62;27.54
56604;BME280;42486;47.478;19.036;2022-08-14T07:59:49;99652.28;;;37.71;26.02
56604;BME280;42486;47.478;19.036;2022-08-14T08:02:52;99645.50;;;38.53;25.04
56604;BME280;42486;47.478;19.036;2022-08-14T08:06:01;99648.59;;;38.60;24.94
56604;BME280;42486;47.478;19.036;2022-08-14T08:09:19;99648.50;;;38.43;25.07
56604;BME280;42486;47.478;19.036;2022-08-14T08:12:33;99654.81;;;39.18;24.25
56604;BME280;42486;47.478;19.036;2022-08-14T08:15:39;99652.41;;;38.50;24.99
56604;BME280;42486;47.478;19.036;2022-08-14T08:18:44;99643.34;;;35.49;28.81
56604;BME280;42486;47.478;19.036;2022-08-14T08:21:50;99639.06;;;32.96;33.52
56604;BME280;42486;47.478;19.036;2022-08-14T08:24:56;99641.09;;;31.06;37.03
56604;BME280;42486;47.478;19.036;2022-08-14T08:31:10;99626.56;;;29.15;40.93
56604;BME280;42486;47.478;19.036;2022-08-14T08:34:14;99626.53;;;29.42;41.43
56604;BME280;42486;47.478;19.036;2022-08-14T08:37:19;99627.03;;;29.12;41.94
56604;BME280;42486;47.478;19.036;2022-08-14T08:40:31;99624.50;;;29.27;41.24
56604;BME280;42486;47.478;19.036;2022-08-14T08:43:44;99621.13;;;29.10;41.54
56604;BME280;42486;47.478;19.036;2022-08-14T08:46:56;99619.19;;;29.05;41.59
56604;BME280;42486;47.478;19.036;2022-08-14T08:49:59;99626.00;;;29.13;41.71
56604;BME280;42486;47.478;19.036;2022-08-14T08:53:28;99626.28;;;28.94;41.84
56604;BME280;42486;47.478;19.036;2022-08-14T08:56:35;99618.09;;;28.84;42.29
56604;BME280;42486;47.478;19.036;2022-08-14T08:59:41;99618.53;;;28.98;42.52
56604;BME280;42486;47.478;19.036;2022-08-14T09:02:51;99612.44;;;29.30;41.16
56604;BME280;42486;47.478;19.036;2022-08-14T09:06:01;99616.88;;;29.46;41.01
56604;BME280;42486;47.478;19.036;2022-08-14T09:09:28;99607.41;;;28.89;41.36
56604;BME280;42486;47.478;19.036;2022-08-14T09:12:51;99609.28;;;28.45;42.10
56604;BME280;42486;47.478;19.036;2022-08-14T09:15:57;99610.84;;;28.63;42.00
56604;BME280;42486;47.478;19.036;2022-08-14T09:19:00;99611.41;;;28.87;40.56
56604;BME280;42486;47.478;19.036;2022-08-14T09:22:05;99605.97;;;28.82;40.44
56604;BME280;42486;47.478;19.036;2022-08-14T09:25:29;99601.16;;;28.23;41.91
56604;BME280;42486;47.478;19.036;2022-08-14T09:28:54;99594.66;;;28.58;40.38
56604;BME280;42486;47.478;19.036;2022-08-14T09:31:59;99584.31;;;28.93;39.63
56604;BME280;42486;47.478;19.036;2022-08-14T09:35:22;99586.03;;;29.27;39.88
56604;BME280;42486;47.478;19.036;2022-08-14T09:45:16;99588.87;;;29.74;38.02
56604;BME280;42486;47.478;19.036;2022-08-14T09:48:21;99583.69;;;29.68;39.02
56604;BME280;42486;47.478;19.036;2022-08-14T09:51:32;99579.41;;;30.09;37.59
56604;BME280;42486;47.478;19.036;2022-08-14T09:54:52;99581.25;;;30.46;36.05
56604;BME280;42486;47.478;19.036;2022-08-14T09:58:05;99572.56;;;30.34;35.85
56604;BME280;42486;47.478;19.036;2022-08-14T10:01:12;99574.37;;;30.23;36.53
56604;BME280;42486;47.478;19.036;2022-08-14T10:04:19;99569.91;;;30.44;35.26
56604;BME280;42486;47.478;19.036;2022-08-14T10:07:46;99570.50;;;30.51;36.27
56604;BME280;42486;47.478;19.036;2022-08-14T10:10:58;99559.56;;;30.88;32.79
56604;BME280;42486;47.478;19.036;2022-08-14T10:14:17;99575.34;;;30.54;32.80
56604;BME280;42486;47.478;19.036;2022-08-14T10:17:36;99565.63;;;30.58;33.22
56604;BME280;42486;47.478;19.036;2022-08-14T10:20:41;99571.75;;;30.33;35.00
56604;BME280;42486;47.478;19.036;2022-08-14T10:23:51;99564.16;;;30.83;33.72
56604;BME280;42486;47.478;19.036;2022-08-14T10:26:55;99559.84;;;30.92;33.71
56604;BME280;42486;47.478;19.036;2022-08-14T10:30:02;99573.41;;;31.43;32.49
56604;BME280;42486;47.478;19.036;2022-08-14T10:33:30;99563.34;;;30.98;33.25
56604;BME280;42486;47.478;19.036;2022-08-14T10:36:34;99558.81;;;31.29;33.24
56604;BME280;42486;47.478;19.036;2022-08-14T10:39:59;99558.00;;;31.64;32.21
56604;BME280;42486;47.478;19.036;2022-08-14T10:43:24;99555.28;;;31.13;32.38
56604;BME280;42486;47.478;19.036;2022-08-14T10:46:43;99553.16;;;31.61;31.91
56604;BME280;42486;47.478;19.036;2022-08-14T10:50:07;99555.53;;;31.88;30.94
56604;BME280;42486;47.478;19.036;2022-08-14T10:53:36;99550.66;;;32.16;31.51
56604;BME280;42486;47.478;19.036;2022-08-14T10:56:40;99548.78;;;31.86;31.09
56604;BME280;42486;47.478;19.036;2022-08-14T11:02:55;99544.19;;;31.91;29.38
56604;BME280;42486;47.478;19.036;2022-08-14T11:05:59;99546.28;;;32.25;29.95
56604;BME280;42486;47.478;19.036;2022-08-14T11:09:13;99546.66;;;32.68;29.55
56604;BME280;42486;47.478;19.036;2022-08-14T11:12:18;99539.41;;;33.03;29.76
56604;BME280;42486;47.478;19.036;2022-08-14T11:15:41;99532.41;;;32.97;27.03
56604;BME280;42486;47.478;19.036;2022-08-14T11:18:46;99527.78;;;32.53;28.83
56604;BME280;42486;47.478;19.036;2022-08-14T11:21:51;99525.41;;;32.41;27.77
56604;BME280;42486;47.478;19.036;2022-08-14T11:25:02;99525.59;;;32.60;28.01
56604;BME280;42486;47.478;19.036;2022-08-14T11:28:07;99521.81;;;32.61;26.39
56604;BME280;42486;47.478;19.036;2022-08-14T11:31:12;99510.72;;;32.57;26.19
56604;BME280;42486;47.478;19.036;2022-08-14T11:34:40;99513.03;;;32.24;26.86
56604;BME280;42486;47.478;19.036;2022-08-14T11:37:54;99509.88;;;32.67;26.31
56604;BME280;42486;47.478;19.036;2022-08-14T11:40:58;99498.37;;;32.36;26.75
56604;BME280;42486;47.478;19.036;2022-08-14T11:44:02;99502.34;;;33.03;26.40
56604;BME280;42486;47.478;19.036;2022-08-14T11:47:14;99497.56;;;33.24;26.43
56604;BME280;42486;47.478;19.036;2022-08-14T11:50:22;99496.47;;;33.60;25.42
56604;BME280;42486;47.478;19.036;2022-08-14T11:53:37;99489.47;;;33.77;24.81
56604;BME280;42486;47.478;19.036;2022-08-14T11:56:43;99482.22;;;33.15;25.59
56604;BME280;42486;47.478;19.036;2022-08-14T11:59:46;99484.31;;;33.23;26.38
56604;BME280;42486;47.478;19.036;2022-08-14T12:02:58;99484.13;;;33.43;26.34
56604;BME280;42486;47.478;19.036;2022-08-14T12:06:05;99479.09;;;33.31;25.99
56604;BME280;42486;47.478;19.036;2022-08-14T12:09:29;99477.19;;;33.32;24.91
56604;BME280;42486;47.478;19.036;2022-08-14T12:12:33;99471.75;;;33.32;24.93
56604;BME280;42486;47.478;19.036;2022-08-14T12:15:44;99461.50;;;32.55;25.77
56604;BME280;42486;47.478;19.036;2022-08-14T12:18:48;99461.22;;;32.96;25.69
56604;BME280;42486;47.478;19.036;2022-08-14T12:21:55;99456.19;;;33.48;25.33
56604;BME280;42486;47.478;19.036;2022-08-14T12:24:58;99461.75;;;33.86;25.09
56604;BME280;42486;47.478;19.036;2022-08-14T12:28:09;99455.03;;;34.07;23.93
56604;BME280;42486;47.478;19.036;2022-08-14T12:31:35;99451.09;;;33.70;24.41
56604;BME280;42486;47.478;19.036;2022-08-14T12:34:51;99449.41;;;33.74;24.52
56604;BME280;42486;47.478;19.036;2022-08-14T12:37:54;99443.50;;;33.43;24.92
56604;BME280;42486;47.478;19.036;2022-08-14T12:40:57;99443.19;;;33.74;24.66
56604;BME280;42486;47.478;19.036;2022-08-14T12:44:01;99422.41;;;33.11;25.10
56604;BME280;42486;47.478;19.036;2022-08-14T12:47:06;99443.78;;;33.13;24.97
56604;BME280;42486;47.478;19.036;2022-08-14T12:50:15;99449.56;;;33.59;24.79
56604;BME280;42486;47.478;19.036;2022-08-14T12:53:20;99438.59;;;33.93;24.07
56604;BME280;42486;47.478;19.036;2022-08-14T12:56:23;99432.81;;;33.81;23.76
56604;BME280;42486;47.478;19.036;2022-08-14T12:59:35;99433.69;;;33.76;24.19
56604;BME280;42486;47.478;19.036;2022-08-14T13:02:45;99430.75;;;33.73;23.98
56604;BME280;42486;47.478;19.036;2022-08-14T13:05:55;99430.03;;;33.86;23.62
56604;BME280;42486;47.478;19.036;2022-08-14T13:09:05;99412.03;;;33.47;24.04
56604;BME280;42486;47.478;19.036;2022-08-14T13:12:12;99407.78;;;32.78;25.11
56604;BME280;42486;47.478;19.036;2022-08-14T13:15:35;99411.94;;;32.65;25.98
56604;BME280;42486;47.478;19.036;2022-08-14T13:18:41;99411.88;;;33.09;24.80
56604;BME280;42486;47.478;19.036;2022-08-14T13:21:48;99414.84;;;33.37;24.69
56604;BME280;42486;47.478;19.036;2022-08-14T13:25:11;99411.16;;;33.57;24.18
56604;BME280;42486;47.478;19.036;2022-08-14T13:28:16;99406.37;;;33.20;24.63
56604;BME280;42486;47.478;19.036;2022-08-14T13:31:34;99412.44;;;32.72;25.35
56604;BME280;42486;47.478;19.036;2022-08-14T13:34:46;99411.41;;;32.63;25.69
56604;BME280;42486;47.478;19.036;2022-08-14T13:37:53;99404.78;;;31.85;26.24
56604;BME280;42486;47.478;19.036;2022-08-14T13:40:56;99400.59;;;31.48;28.51
56604;BME280;42486;47.478;19.036;2022-08-14T13:43:58;99397.66;;;31.19;28.53
56604;BME280;42486;47.478;19.036;2022-08-14T13:47:01;99391.44;;;31.24;27.12
56604;BME280;42486;47.478;19.036;2022-08-14T13:50:11;99382.97;;;31.71;27.24
56604;BME280;42486;47.478;19.036;2022-08-14T13:53:21;99379.81;;;32.14;26.26
56604;BME280;42486;47.478;19.036;2022-08-14T13:56:25;99380.69;;;31.99;26.34
56604;BME280;42486;47.478;19.036;2022-08-14T13:59:38;99382.16;;;32.25;25.93
56604;BME280;42486;47.478;19.036;2022-08-14T14:02:45;99378.56;;;32.40;26.81
56604;BME280;42486;47.478;19.036;2022-08-14T14:05:49;99378.25;;;32.08;26.22
56604;BME280;42486;47.478;19.036;2022-08-14T14:08:54;99369.41;;;31.81;27.01
56604;BME280;42486;47.478;19.036;2022-08-14T14:12:00;99361.00;;;31.93;26.63
56604;BME280;42486;47.478;19.036;2022-08-14T14:15:05;99362.69;;;31.74;27.21
56604;BME280;42486;47.478;19.036;2022-08-14T14:18:10;99366.81;;;31.61;27.04
56604;BME280;42486;47.478;19.036;2022-08-14T14:21:30;99356.84;;;31.51;27.69
56604;BME280;42486;47.478;19.036;2022-08-14T14:24:35;99359.28;;;31.53;27.88
56604;BME280;42486;47.478;19.036;2022-08-14T14:27:38;99364.88;;;31.67;27.71
56604;BME280;42486;47.478;19.036;2022-08-14T14:30:44;99354.00;;;31.87;27.29
56604;BME280;42486;47.478;19.036;2022-08-14T14:33:55;99358.38;;;31.73;27.88
56604;BME280;42486;47.478;19.036;2022-08-14T14:36:59;99353.00;;;31.68;27.05
56604;BME280;42486;47.478;19.036;2022-08-14T14:40:08;99357.50;;;31.93;27.19
56604;BME280;42486;47.478;19.036;2022-08-14T14:43:37;99360.25;;;31.72;27.82
56604;BME280;42486;47.478;19.036;2022-08-14T14:46:45;99347.28;;;31.74;27.19
56604;BME280;42486;47.478;19.036;2022-08-14T14:49:54;99338.81;;;31.91;26.87
56604;BME280;42486;47.478;19.036;2022-08-14T14:52:59;99341.66;;;32.20;26.99
56604;BME280;42486;47.478;19.036;2022-08-14T14:56:15;99330.44;;;32.03;28.13
56604;BME280;42486;47.478;19.036;2022-08-14T14:59:39;99328.75;;;31.57;28.42
56604;BME280;42486;47.478;19.036;2022-08-14T15:02:45;99329.06;;;31.41;28.45
56604;BME280;42486;47.478;19.036;2022-08-14T15:05:50;99329.41;;;31.08;29.97
56604;BME280;42486;47.478;19.036;2022-08-14T15:08:57;99333.75;;;31.04;29.17
56604;BME280;42486;47.478;19.036;2022-08-14T15:12:05;99335.56;;;31.24;28.76
56604;BME280;42486;47.478;19.036;2022-08-14T15:15:29;99329.81;;;31.56;28.08
56604;BME280;42486;47.478;19.036;2022-08-14T15:18:34;99335.72;;;31.69;28.48
56604;BME280;42486;47.478;19.036;2022-08-14T15:21:47;99330.72;;;31.26;28.26
56604;BME280;42486;47.478;19.036;2022-08-14T15:24:52;99337.25;;;31.00;28.85
56604;BME280;42486;47.478;19.036;2022-08-14T15:27:57;99333.22;;;30.82;28.54
56604;BME280;42486;47.478;19.036;2022-08-14T15:31:01;99335.38;;;30.90;28.54
56604;BME280;42486;47.478;19.036;2022-08-14T15:34:08;99331.31;;;30.98;28.70
56604;BME280;42486;47.478;19.036;2022-08-14T15:37:36;99335.88;;;31.12;29.07
56604;BME280;42486;47.478;19.036;2022-08-14T15:40:43;99331.84;;;31.15;28.86
56604;BME280;42486;47.478;19.036;2022-08-14T15:43:57;99339.34;;;31.33;28.29
56604;BME280;42486;47.478;19.036;2022-08-14T15:47:04;99331.16;;;31.54;27.63
56604;BME280;42486;47.478;19.036;2022-08-14T15:50:10;99323.66;;;31.41;27.67
56604;BME280;42486;47.478;19.036;2022-08-14T15:53:15;99322.00;;;31.55;27.84
56604;BME280;42486;47.478;19.036;2022-08-14T15:56:21;99326.31;;;31.56;27.40
56604;BME280;42486;47.478;19.036;2022-08-14T15:59:44;99329.59;;;31.32;27.72
56604;BME280;42486;47.478;19.036;2022-08-14T16:03:13;99316.47;;;31.05;28.49
56604;BME280;42486;47.478;19.036;2022-08-14T16:06:35;99318.09;;;30.76;29.17
56604;BME280;42486;47.478;19.036;2022-08-14T16:09:38;99322.19;;;30.83;29.02
56604;BME280;42486;47.478;19.036;2022-08-14T16:12:45;99314.06;;;30.78;28.97
56604;BME280;42486;47.478;19.036;2022-08-14T16:15:48;99321.34;;;30.62;29.01
56604;BME280;42486;47.478;19.036;2022-08-14T16:18:54;99315.69;;;30.33;29.68
56604;BME280;42486;47.478;19.036;2022-08-14T16:22:00;99316.72;;;30.12;30.23
56604;BME280;42486;47.478;19.036;2022-08-14T16:25:26;99311.03;;;30.13;30.13
56604;BME280;42486;47.478;19.036;2022-08-14T16:28:36;99316.47;;;30.23;29.49
56604;BME280;42486;47.478;19.036;2022-08-14T16:31:40;99318.31;;;30.13;30.50
56604;BME280;42486;47.478;19.036;2022-08-14T16:35:03;99320.19;;;30.02;30.91
56604;BME280;42486;47.478;19.036;2022-08-14T16:38:09;99312.06;;;29.87;31.04
56604;BME280;42486;47.478;19.036;2022-08-14T16:41:32;99315.34;;;29.99;30.37
56604;BME280;42486;47.478;19.036;2022-08-14T16:44:40;99313.22;;;30.21;29.13
56604;BME280;42486;47.478;19.036;2022-08-14T16:47:44;99327.47;;;30.01;29.72
56604;BME280;42486;47.478;19.036;2022-08-14T16:50:51;99320.69;;;29.89;29.70